createdAt,value
2022-08-05T00:02:20.971Z,101030.59
2022-08-05T00:04:47.404Z,101031.03
2022-08-05T00:07:59.080Z,101027.78
2022-08-05T00:10:09.236Z,101031.41
2022-08-05T00:12:35.686Z,101024.22
2022-08-05T00:15:56.201Z,101031.97
2022-08-05T00:18:08.549Z,101030.41
2022-08-05T00:20:34.953Z,101038.06
2022-08-05T00:23:12.485Z,101044.25
2022-08-05T00:25:45.599Z,101046.69
2022-08-05T00:28:13.097Z,101057.66
2022-08-05T00:30:39.604Z,101057.38
2022-08-05T00:33:15.388Z,101053.50
2022-08-05T00:36:15.947Z,101036.00
2022-08-05T00:38:41.287Z,101033.25
2022-08-05T00:41:11.524Z,101036.72
2022-08-05T00:43:46.967Z,101034.09
2022-08-05T00:46:16.064Z,101031.19
2022-08-05T00:48:50.756Z,101025.91
2022-08-05T00:51:51.795Z,101035.75
2022-08-05T00:54:06.143Z,101042.91
2022-08-05T00:56:32.596Z,101053.84
2022-08-05T00:58:59.195Z,101062.81
2022-08-05T01:01:42.892Z,101068.22
2022-08-05T01:04:14.072Z,101071.50
2022-08-05T01:06:40.907Z,101068.13
2022-08-05T01:09:10.041Z,101071.16
2022-08-05T01:11:39.247Z,101066.97
2022-08-05T01:14:17.729Z,101066.38
2022-08-05T01:17:02.457Z,101058.47
2022-08-05T01:20:01.915Z,101064.69
2022-08-05T01:22:48.159Z,101075.09
2022-08-05T01:25:54.758Z,101059.66
2022-08-05T01:28:56.646Z,101056.41
2022-08-05T01:31:45.217Z,101045.94
2022-08-05T01:34:32.690Z,101058.13
2022-08-05T01:37:24.367Z,101051.56
2022-08-05T01:39:54.854Z,101036.84
2022-08-05T01:42:27.669Z,101027.19
2022-08-05T01:44:56.866Z,101019.28
2022-08-05T01:47:38.785Z,101007.97
2022-08-05T01:50:15.302Z,101002.94
2022-08-05T01:52:44.243Z,100990.06
2022-08-05T01:55:14.657Z,100988.78
2022-08-05T01:58:11.071Z,100994.19
2022-08-05T02:00:35.030Z,100989.38
2022-08-05T02:03:07.176Z,100984.34
2022-08-05T02:05:53.449Z,100958.72
2022-08-05T02:08:31.140Z,100922.47
2022-08-05T02:11:11.716Z,100921.50
2022-08-05T02:13:55.818Z,100919.53
2022-08-05T02:16:46.392Z,100917.16
2022-08-05T02:19:33.511Z,100928.13
2022-08-05T02:22:26.528Z,100917.56
2022-08-05T02:24:57.924Z,100917.69
2022-08-05T02:27:29.970Z,100919.13
2022-08-05T02:30:13.842Z,100904.44
2022-08-05T02:32:41.212Z,100907.75
2022-08-05T02:35:13.854Z,100894.25
2022-08-05T02:37:47.882Z,100881.13
2022-08-05T02:40:22.846Z,100876.00
2022-08-05T02:42:54.183Z,100877.97
2022-08-05T02:45:23.815Z,100897.94
2022-08-05T02:48:06.918Z,100919.06
2022-08-05T02:50:39.101Z,100941.94
2022-08-05T02:53:12.054Z,100973.53
2022-08-05T02:55:54.966Z,101005.31
2022-08-05T02:58:27.343Z,101048.03
2022-08-05T03:00:56.718Z,101050.69
2022-08-05T03:03:24.242Z,101011.44
2022-08-05T03:06:54.597Z,101004.66
2022-08-05T03:08:42.665Z,100986.25
2022-08-05T03:11:56.441Z,100972.00
2022-08-05T03:14:13.326Z,100942.06
2022-08-05T03:16:40.410Z,100946.88
2022-08-05T03:19:12.761Z,100965.44
2022-08-05T03:21:49.472Z,100969.91
2022-08-05T03:24:29.911Z,100959.63
2022-08-05T03:27:00.358Z,100975.00
2022-08-05T03:29:45.939Z,100963.38
2022-08-05T03:32:15.255Z,100952.38
2022-08-05T03:34:50.553Z,100946.25
2022-08-05T03:37:19.061Z,100942.25
2022-08-05T03:39:59.358Z,100945.00
2022-08-05T03:42:29.031Z,100966.72
2022-08-05T03:44:58.337Z,100983.72
2022-08-05T03:47:25.103Z,100991.50
2022-08-05T03:49:56.930Z,100992.06
2022-08-05T03:52:37.775Z,100998.63
2022-08-05T03:56:00.949Z,101003.09
2022-08-05T03:58:12.421Z,100995.66
2022-08-05T04:00:41.968Z,100983.94
2022-08-05T04:03:15.029Z,100980.94
2022-08-05T04:05:57.877Z,100981.75
2022-08-05T04:08:35.937Z,100975.13
2022-08-05T04:11:05.028Z,100974.56
2022-08-05T04:13:50.190Z,100986.00
2022-08-05T04:16:25.437Z,100990.75
2022-08-05T04:18:58.850Z,100999.25
2022-08-05T04:22:08.434Z,100993.56
2022-08-05T04:24:19.333Z,100979.41
2022-08-05T04:26:49.417Z,100987.53
2022-08-05T04:29:15.773Z,100984.06
2022-08-05T04:31:42.900Z,100988.00
2022-08-05T04:34:18.439Z,101001.81
2022-08-05T04:36:55.930Z,101008.06
2022-08-05T04:39:22.574Z,101015.56
2022-08-05T04:41:51.146Z,100999.91
2022-08-05T04:44:21.376Z,100993.38
2022-08-05T04:46:56.441Z,101007.75
2022-08-05T04:49:24.898Z,101007.63
2022-08-05T04:52:07.676Z,101017.06
2022-08-05T04:54:34.295Z,101032.75
2022-08-05T04:57:00.726Z,101041.28
2022-08-05T04:59:38.558Z,101053.22
2022-08-05T05:02:41.535Z,101047.84
2022-08-05T05:04:52.776Z,101036.47
2022-08-05T05:07:29.415Z,101053.09
2022-08-05T05:09:58.417Z,101067.06
2022-08-05T05:12:24.762Z,101070.72
2022-08-05T05:14:53.953Z,101069.88
2022-08-05T05:17:24.262Z,101076.28
2022-08-05T05:19:57.746Z,101086.63
2022-08-05T05:22:26.476Z,101100.81
2022-08-05T05:24:57.163Z,101089.66
2022-08-05T05:27:25.044Z,101082.09
2022-08-05T05:30:09.192Z,101083.97
2022-08-05T05:32:56.027Z,101074.41
2022-08-05T05:35:22.890Z,101074.72
2022-08-05T05:38:01.461Z,101070.75
2022-08-05T05:40:30.083Z,101073.38
2022-08-05T05:42:59.157Z,101080.53
2022-08-05T05:45:25.766Z,101087.19
2022-08-05T05:48:06.926Z,101086.91
2022-08-05T05:50:43.894Z,101078.38
2022-08-05T05:53:22.121Z,101082.94
2022-08-05T05:55:51.572Z,101088.84
2022-08-05T05:58:31.762Z,101092.03
2022-08-05T06:01:04.896Z,101086.81
2022-08-05T06:04:00.452Z,101083.13
2022-08-05T06:06:31.298Z,101084.50
2022-08-05T06:08:59.804Z,101081.63
2022-08-05T06:11:26.213Z,101084.06
2022-08-05T06:13:55.647Z,101081.44
2022-08-05T06:16:30.546Z,101083.41
2022-08-05T06:19:00.791Z,101075.34
2022-08-05T06:21:36.949Z,101085.94
2022-08-05T06:24:11.531Z,101095.09
2022-08-05T06:26:39.048Z,101094.81
2022-08-05T06:29:23.796Z,101094.97
2022-08-05T06:31:52.616Z,101090.75
2022-08-05T06:34:19.868Z,101091.03
2022-08-05T06:36:57.934Z,101081.34
2022-08-05T06:39:27.613Z,101088.00
2022-08-05T06:41:56.122Z,101098.88
2022-08-05T06:44:25.105Z,101096.88
2022-08-05T06:46:52.457Z,101100.53
2022-08-05T06:49:21.356Z,101104.66
2022-08-05T06:52:07.305Z,101083.06
2022-08-05T06:54:33.771Z,101079.94
2022-08-05T06:57:57.691Z,101069.75
2022-08-05T06:59:55.157Z,101083.38
2022-08-05T07:02:24.453Z,101082.78
2022-08-05T07:04:51.258Z,101088.16
2022-08-05T07:07:24.136Z,101091.41
2022-08-05T07:10:05.749Z,101097.59
2022-08-05T07:12:53.704Z,101106.81
2022-08-05T07:16:00.885Z,101123.91
2022-08-05T07:18:30.036Z,101124.78
2022-08-05T07:20:56.947Z,101117.59
2022-08-05T07:23:26.362Z,101106.59
2022-08-05T07:25:56.972Z,101096.13
2022-08-05T07:28:25.027Z,101086.84
2022-08-05T07:30:54.824Z,101092.25
2022-08-05T07:33:36.587Z,101088.50
2022-08-05T07:36:20.609Z,101086.66
2022-08-05T07:38:49.173Z,101078.63
2022-08-05T07:42:13.302Z,101073.75
2022-08-05T07:44:18.638Z,101067.56
2022-08-05T07:46:48.545Z,101075.38
2022-08-05T07:49:18.142Z,101075.88
2022-08-05T07:51:53.405Z,101086.19
2022-08-05T07:54:30.721Z,101085.22
2022-08-05T07:57:01.974Z,101078.88
2022-08-05T07:59:44.589Z,101085.81
2022-08-05T08:02:15.694Z,101085.00
2022-08-05T08:04:44.827Z,101085.81
2022-08-05T08:07:12.047Z,101094.50
2022-08-05T08:09:38.473Z,101095.59
2022-08-05T08:12:12.528Z,101098.00
2022-08-05T08:14:47.071Z,101115.34
2022-08-05T08:17:15.756Z,101122.72
2022-08-05T08:20:22.840Z,101122.38
2022-08-05T08:22:30.585Z,101106.50
2022-08-05T08:25:03.038Z,101098.25
2022-08-05T08:27:39.988Z,101107.91
2022-08-05T08:30:28.465Z,101104.88
2022-08-05T08:33:02.598Z,101099.84
2022-08-05T08:35:34.747Z,101111.16
2022-08-05T08:38:07.212Z,101110.63
2022-08-05T08:40:35.209Z,101106.88
2022-08-05T08:45:16.187Z,101102.66
2022-08-05T08:45:54.020Z,101098.47
2022-08-05T08:48:41.364Z,101117.00
2022-08-05T08:52:02.296Z,101112.38
2022-08-05T08:53:55.052Z,101113.50
2022-08-05T08:56:22.106Z,101115.09
2022-08-05T08:58:48.999Z,101122.25
2022-08-05T09:01:18.864Z,101121.34
2022-08-05T09:03:54.306Z,101122.31
2022-08-05T09:06:24.107Z,101130.19
2022-08-05T09:08:58.068Z,101135.25
2022-08-05T09:11:53.472Z,101134.59
2022-08-05T09:14:56.545Z,101138.66
2022-08-05T09:17:00.406Z,101152.81
2022-08-05T09:19:27.971Z,101156.19
2022-08-05T09:22:17.899Z,101168.28
2022-08-05T09:25:14.034Z,101155.84
2022-08-05T09:28:04.048Z,101154.41
2022-08-05T09:30:34.108Z,101157.22
2022-08-05T09:33:04.794Z,101156.66
2022-08-05T09:35:31.380Z,101155.19
2022-08-05T09:38:12.237Z,101162.31
2022-08-05T09:40:44.546Z,101164.91
2022-08-05T09:43:40.870Z,101158.44
2022-08-05T09:46:30.116Z,101154.09
2022-08-05T09:49:08.077Z,101152.34
2022-08-05T09:51:49.583Z,101155.66
2022-08-05T09:54:28.869Z,101148.53
2022-08-05T09:56:56.160Z,101141.81
2022-08-05T09:59:24.442Z,101142.97
2022-08-05T10:01:57.692Z,101138.63
2022-08-05T10:04:35.362Z,101139.38
2022-08-05T10:07:20.175Z,101156.31
2022-08-05T10:10:13.728Z,101157.34
2022-08-05T10:12:49.789Z,101153.28
2022-08-05T10:15:20.753Z,101145.78
2022-08-05T10:18:13.637Z,101154.44
2022-08-05T10:20:42.653Z,101154.13
2022-08-05T10:23:34.504Z,101146.13
2022-08-05T10:26:14.340Z,101151.59
2022-08-05T10:28:42.654Z,101154.44
2022-08-05T10:32:49.351Z,101161.81
2022-08-05T10:33:58.381Z,101168.69
2022-08-05T10:36:26.099Z,101170.75
2022-08-05T10:39:04.993Z,101171.88
2022-08-05T10:42:01.194Z,101177.44
2022-08-05T10:44:29.334Z,101169.47
2022-08-05T10:46:56.868Z,101173.41
2022-08-05T10:49:26.763Z,101182.09
2022-08-05T10:52:00.155Z,101176.41
2022-08-05T10:55:01.620Z,101178.56
2022-08-05T10:57:30.918Z,101179.72
2022-08-05T11:00:19.835Z,101193.34
2022-08-05T11:03:23.134Z,101190.19
2022-08-05T11:06:15.108Z,101207.16
2022-08-05T11:09:24.224Z,101218.03
2022-08-05T11:12:05.683Z,101215.41
2022-08-05T11:18:00.451Z,101223.38
2022-08-05T11:20:48.333Z,101231.28
2022-08-05T11:24:03.847Z,101243.53
2022-08-05T11:26:35.372Z,101252.91
2022-08-05T11:29:11.472Z,101250.78
2022-08-05T11:31:57.608Z,101239.53
2022-08-05T11:34:37.823Z,101243.69
2022-08-05T11:38:14.260Z,101255.16
2022-08-05T11:40:00.359Z,101264.38
2022-08-05T11:42:38.067Z,101272.09
2022-08-05T11:45:14.314Z,101270.06
2022-08-05T11:47:54.875Z,101262.84
2022-08-05T11:50:21.694Z,101259.00
2022-08-05T11:52:48.794Z,101266.59
2022-08-05T11:55:16.722Z,101279.81
2022-08-05T11:58:10.760Z,101286.50
2022-08-05T12:00:38.199Z,101284.72
2022-08-05T12:03:29.010Z,101285.16
2022-08-05T12:06:05.763Z,101282.81
2022-08-05T12:08:57.026Z,101296.06
2022-08-05T12:11:39.716Z,101288.31
2022-08-05T12:14:08.329Z,101296.81
2022-08-05T12:16:45.117Z,101281.91
2022-08-05T12:20:25.628Z,101275.31
2022-08-05T12:21:58.573Z,101274.72
2022-08-05T12:24:27.507Z,101276.00
2022-08-05T12:26:54.679Z,101301.19
2022-08-05T12:29:26.186Z,101318.34
2022-08-05T12:31:55.304Z,101325.19
2022-08-05T12:34:26.588Z,101309.56
2022-08-05T12:36:54.750Z,101310.34
2022-08-05T12:39:23.622Z,101315.91
2022-08-05T12:41:59.554Z,101311.56
2022-08-05T12:44:33.275Z,101315.03
2022-08-05T12:47:02.215Z,101316.75
2022-08-05T12:50:01.959Z,101302.16
2022-08-05T12:52:39.467Z,101295.41
2022-08-05T12:55:33.000Z,101283.66
2022-08-05T12:58:49.607Z,101280.59
2022-08-05T13:02:04.062Z,101290.50
2022-08-05T13:03:41.553Z,101287.97
2022-08-05T13:06:12.339Z,101292.94
2022-08-05T13:08:38.758Z,101285.69
2022-08-05T13:11:07.683Z,101282.63
2022-08-05T13:14:05.966Z,101288.69
2022-08-05T13:16:25.061Z,101280.72
2022-08-05T13:18:58.682Z,101289.47
2022-08-05T13:21:27.682Z,101289.72
2022-08-05T13:23:55.367Z,101285.53
2022-08-05T13:26:30.201Z,101283.56
2022-08-05T13:28:57.356Z,101307.78
2022-08-05T13:31:33.772Z,101310.00
2022-08-05T13:34:25.161Z,101309.59
2022-08-05T13:36:55.064Z,101308.66
2022-08-05T13:39:24.468Z,101304.69
2022-08-05T13:42:13.958Z,101297.25
2022-08-05T13:44:46.074Z,101287.78
2022-08-05T13:47:34.988Z,101292.97
2022-08-05T13:50:04.475Z,101285.03
2022-08-05T13:52:35.512Z,101279.63
2022-08-05T13:55:07.485Z,101275.09
2022-08-05T13:57:50.900Z,101273.75
2022-08-05T14:00:27.069Z,101278.91
2022-08-05T14:02:57.589Z,101278.13
2022-08-05T14:05:48.096Z,101275.53
2022-08-05T14:08:11.334Z,101280.22
2022-08-05T14:10:47.470Z,101277.94
2022-08-05T14:13:15.343Z,101279.69
2022-08-05T14:16:04.985Z,101276.53
2022-08-05T14:18:28.177Z,101279.31
2022-08-05T14:20:55.398Z,101278.22
2022-08-05T14:23:24.551Z,101281.25
2022-08-05T14:25:58.141Z,101278.53
2022-08-05T14:28:26.381Z,101274.88
2022-08-05T14:30:53.671Z,101280.13
2022-08-05T14:33:22.693Z,101283.56
2022-08-05T14:35:51.484Z,101284.13
2022-08-05T14:38:32.063Z,101295.78
2022-08-05T14:41:06.284Z,101294.56
2022-08-05T14:44:00.146Z,101286.69
2022-08-05T14:46:28.497Z,101275.94
2022-08-05T14:48:56.719Z,101271.78
2022-08-05T14:51:23.642Z,101271.50
2022-08-05T14:54:26.953Z,101278.88
2022-08-05T14:56:38.051Z,101278.22
2022-08-05T14:59:11.247Z,101281.13
2022-08-05T15:01:48.751Z,101282.94
2022-08-05T15:04:17.204Z,101278.63
2022-08-05T15:06:49.287Z,101282.19
2022-08-05T15:09:51.356Z,101287.41
2022-08-05T15:12:06.633Z,101294.72
2022-08-05T15:14:48.107Z,101295.81
2022-08-05T15:17:45.634Z,101297.00
2022-08-05T15:20:04.048Z,101286.31
2022-08-05T15:22:30.401Z,101289.31
2022-08-05T15:24:58.793Z,101282.59
2022-08-05T15:27:25.721Z,101285.00
2022-08-05T15:29:53.128Z,101284.44
2022-08-05T15:32:27.129Z,101275.00
2022-08-05T15:34:55.781Z,101280.13
2022-08-05T15:37:27.401Z,101276.13
2022-08-05T15:41:02.822Z,101279.50
2022-08-05T15:43:07.916Z,101290.00
2022-08-05T15:45:42.955Z,101295.47
2022-08-05T15:48:14.457Z,101294.16
2022-08-05T15:50:41.648Z,101297.00
2022-08-05T15:53:12.519Z,101299.94
2022-08-05T15:56:03.955Z,101311.03
2022-08-05T15:58:26.068Z,101315.47
2022-08-05T16:01:16.596Z,101326.84
2022-08-05T16:03:42.971Z,101338.38
2022-08-05T16:06:11.473Z,101338.38
2022-08-05T16:08:38.170Z,101349.19
2022-08-05T16:11:04.932Z,101356.13
2022-08-05T16:13:31.848Z,101349.78
2022-08-05T16:16:00.939Z,101350.13
2022-08-05T16:18:28.064Z,101361.25
2022-08-05T16:20:55.598Z,101361.41
2022-08-05T16:23:22.027Z,101366.19
2022-08-05T16:25:49.730Z,101372.19
2022-08-05T16:28:22.272Z,101372.19
2022-08-05T16:30:51.969Z,101371.34
2022-08-05T16:33:19.263Z,101362.03
2022-08-05T16:35:49.924Z,101375.09
2022-08-05T16:38:25.512Z,101377.19
2022-08-05T16:41:00.058Z,101372.06
2022-08-05T16:43:30.036Z,101373.88
2022-08-05T16:46:07.235Z,101369.41
2022-08-05T16:48:37.670Z,101369.91
2022-08-05T16:51:09.821Z,101375.03
2022-08-05T16:54:04.274Z,101371.78
2022-08-05T16:56:29.109Z,101378.63
2022-08-05T16:58:55.969Z,101378.63
2022-08-05T17:01:24.339Z,101366.91
2022-08-05T17:03:51.670Z,101377.34
2022-08-05T17:06:18.095Z,101382.75
2022-08-05T17:08:53.527Z,101383.72
2022-08-05T17:11:23.955Z,101391.38
2022-08-05T17:14:00.516Z,101392.31
2022-08-05T17:16:37.547Z,101389.91
2022-08-05T17:19:07.836Z,101404.91
2022-08-05T17:21:37.710Z,101395.34
2022-08-05T17:24:18.688Z,101392.13
2022-08-05T17:26:55.747Z,101405.94
2022-08-05T17:29:33.111Z,101409.63
2022-08-05T17:32:00.564Z,101415.59
2022-08-05T17:34:30.209Z,101423.28
2022-08-05T17:37:01.752Z,101419.00
2022-08-05T17:39:34.152Z,101420.44
2022-08-05T17:42:18.621Z,101422.94
2022-08-05T17:44:51.634Z,101430.00
2022-08-05T17:47:23.008Z,101427.50
2022-08-05T17:50:00.289Z,101433.59
2022-08-05T17:52:32.103Z,101434.00
2022-08-05T17:54:58.857Z,101442.94
2022-08-05T17:57:25.182Z,101443.44
2022-08-05T18:00:03.739Z,101456.63
2022-08-05T18:02:35.293Z,101461.31
2022-08-05T18:05:07.670Z,101465.72
2022-08-05T18:07:41.695Z,101465.81
2022-08-05T18:10:10.769Z,101471.84
2022-08-05T18:12:37.794Z,101476.72
2022-08-05T18:15:05.164Z,101469.81
2022-08-05T18:18:01.167Z,101469.91
2022-08-05T18:20:19.187Z,101471.78
2022-08-05T18:22:54.032Z,101478.88
2022-08-05T18:25:21.409Z,101484.28
2022-08-05T18:27:52.417Z,101485.13
2022-08-05T18:30:19.186Z,101495.88
2022-08-05T18:32:53.189Z,101492.63
2022-08-05T18:35:20.904Z,101490.94
2022-08-05T18:38:07.903Z,101497.13
2022-08-05T18:41:53.823Z,101494.75
2022-08-05T18:43:21.400Z,101499.19
2022-08-05T18:45:49.611Z,101505.34
2022-08-05T18:48:30.708Z,101501.31
2022-08-05T18:52:04.402Z,101505.59
2022-08-05T18:54:03.870Z,101504.84
2022-08-05T18:56:30.336Z,101511.25
2022-08-05T18:59:01.188Z,101522.78
2022-08-05T19:01:47.257Z,101529.88
2022-08-05T19:04:14.270Z,101534.41
2022-08-05T19:06:50.719Z,101537.16
2022-08-05T19:09:17.376Z,101546.75
2022-08-05T19:12:01.117Z,101548.75
2022-08-05T19:14:53.288Z,101556.59
2022-08-05T19:17:15.904Z,101554.22
2022-08-05T19:19:46.755Z,101571.81
2022-08-05T19:22:16.888Z,101574.44
2022-08-05T19:24:54.230Z,101578.97
2022-08-05T19:27:23.852Z,101580.72
2022-08-05T19:29:51.720Z,101593.88
2022-08-05T19:32:18.230Z,101600.13
2022-08-05T19:34:55.002Z,101601.19
2022-08-05T19:37:35.152Z,101606.63
2022-08-05T19:40:10.350Z,101619.69
2022-08-05T19:42:38.892Z,101618.81
2022-08-05T19:45:06.976Z,101627.63
2022-08-05T19:47:37.131Z,101626.78
2022-08-05T19:50:07.557Z,101629.66
2022-08-05T19:52:36.858Z,101627.22
2022-08-05T19:55:06.964Z,101642.03
2022-08-05T19:57:47.695Z,101635.16
2022-08-05T20:00:22.212Z,101640.31
2022-08-05T20:02:48.617Z,101642.97
2022-08-05T20:05:24.293Z,101643.00
2022-08-05T20:07:55.033Z,101644.72
2022-08-05T20:10:24.978Z,101648.38
2022-08-05T20:12:51.591Z,101647.72
2022-08-05T20:15:23.011Z,101647.72
2022-08-05T20:18:10.819Z,101662.69
2022-08-05T20:20:56.071Z,101662.72
2022-08-05T20:23:38.790Z,101663.72
2022-08-05T20:26:15.428Z,101671.47
2022-08-05T20:28:44.101Z,101671.53
2022-08-05T20:31:11.067Z,101663.78
2022-08-05T20:33:37.409Z,101671.06
2022-08-05T20:36:08.808Z,101676.25
2022-08-05T20:38:37.858Z,101680.63
2022-08-05T20:41:08.450Z,101684.13
2022-08-05T20:43:59.581Z,101688.88
2022-08-05T20:46:25.144Z,101697.78
2022-08-05T20:48:51.959Z,101697.81
2022-08-05T20:51:18.396Z,101696.06
2022-08-05T20:53:55.087Z,101697.16
2022-08-05T20:56:28.754Z,101702.53
2022-08-05T20:59:00.114Z,101707.66
2022-08-05T21:01:40.914Z,101705.91
2022-08-05T21:04:10.351Z,101707.75
2022-08-05T21:06:45.616Z,101719.19
2022-08-05T21:09:14.497Z,101718.22
2022-08-05T21:12:08.990Z,101720.13
2022-08-05T21:14:35.111Z,101719.41
2022-08-05T21:17:05.522Z,101729.00
2022-08-05T21:19:47.375Z,101730.78
2022-08-05T21:22:18.553Z,101730.78
2022-08-05T21:24:48.983Z,101732.53
2022-08-05T21:27:18.170Z,101736.09
2022-08-05T21:29:48.377Z,101735.28
2022-08-05T21:32:19.793Z,101732.53
2022-08-05T21:35:08.250Z,101734.34
2022-08-05T21:37:33.143Z,101736.16
2022-08-05T21:40:04.042Z,101737.00
2022-08-05T21:42:44.141Z,101737.97
2022-08-05T21:45:24.113Z,101746.84
2022-08-05T21:48:01.580Z,101740.03
2022-08-05T21:50:32.792Z,101738.28
2022-08-05T21:53:04.554Z,101741.72
2022-08-05T21:56:01.218Z,101751.31
2022-08-05T21:58:30.672Z,101747.03
2022-08-05T22:00:59.143Z,101746.22
2022-08-05T22:03:51.691Z,101748.84
2022-08-05T22:06:12.150Z,101751.50
2022-08-05T22:08:42.432Z,101749.78
2022-08-05T22:11:11.763Z,101751.59
2022-08-05T22:14:19.746Z,101748.97
2022-08-05T22:16:41.899Z,101759.41
2022-08-05T22:19:57.300Z,101763.81
2022-08-05T22:22:01.280Z,101770.75
2022-08-05T22:24:52.173Z,101761.19
2022-08-05T22:28:10.700Z,101771.63
2022-08-05T22:30:23.966Z,101776.84
2022-08-05T22:32:50.320Z,101776.00
2022-08-05T22:35:16.702Z,101784.69
2022-08-05T22:37:58.632Z,101776.88
2022-08-05T22:40:26.211Z,101782.97
2022-08-05T22:42:53.089Z,101776.84
2022-08-05T22:45:26.054Z,101777.69
2022-08-05T22:47:55.373Z,101782.81
2022-08-05T22:50:27.711Z,101775.91
2022-08-05T22:52:54.879Z,101778.50
2022-08-05T22:55:22.877Z,101780.19
2022-08-05T22:57:53.426Z,101788.97
2022-08-05T23:00:21.983Z,101786.38
2022-08-05T23:02:49.847Z,101797.78
2022-08-05T23:05:17.680Z,101799.56
2022-08-05T23:07:48.289Z,101804.72
2022-08-05T23:10:19.458Z,101793.47
2022-08-05T23:12:47.280Z,101797.88
2022-08-05T23:15:17.837Z,101800.44
2022-08-05T23:18:00.645Z,101805.66
2022-08-05T23:20:29.323Z,101811.81
2022-08-05T23:22:56.531Z,101806.53
2022-08-05T23:25:52.714Z,101808.34
2022-08-05T23:28:12.060Z,101804.91
2022-08-05T23:30:40.560Z,101808.41
2022-08-05T23:33:16.197Z,101814.50
2022-08-05T23:35:49.902Z,101815.41
2022-08-05T23:38:16.979Z,101818.03
2022-08-05T23:40:50.116Z,101824.19
2022-08-05T23:43:25.619Z,101825.03
2022-08-05T23:46:19.573Z,101830.19
2022-08-05T23:49:00.895Z,101835.44
2022-08-05T23:51:53.437Z,101846.75
2022-08-05T23:54:30.186Z,101845.00
2022-08-05T23:57:03.950Z,101848.53
2022-08-05T23:59:37.574Z,101855.50
